CheckWX is a tool to help pilots better visualize weather data.  It is not intended as a substitute for an official pre-flight weather briefing.

09:47:43 UTC

KJOT METAR
Joliet Regional Airport
Joliet, Illinois, USA
Current

13 mins ago

KJOT 200935Z AUTO 08009KT 5SM -SN SCT017 BKN030 OVC035 00/M04 A3010 RMK AO2 T10051037
Observed
Feb-20 @ 09:35 UTC
Wind
  • 080° at 9 KTS
Visibility
8,047 meters
Flight Rules
MVFR
Conditions
Light Snow
Cloud Levels
  • Scattered at 1,700' AGL
  • Broken at 3,000' AGL
  • Overcast at 3,500' AGL
Temperature
-1°C / 30°F
Dewpoint
-4°C / 25°F
Humidity
80%
Altimeter
30.1" Hg
Pressure
1019.32 hPa
Previous

33 mins ago

KJOT 200915Z AUTO 10008KT 7SM -SN SCT021 BKN043 OVC050 00/M05 A3013 RMK AO2 T10021046
Observed
Feb-20 @ 09:15 UTC
Wind
  • 100° at 8 KTS
Visibility
11,265 meters
Flight Rules
VFR
Conditions
Light Snow
Cloud Levels
  • Scattered at 2,100' AGL
  • Broken at 4,300' AGL
  • Overcast at 5,000' AGL
Temperature
-0°C / 32°F
Dewpoint
-5°C / 23°F
Humidity
69%
Altimeter
30.13" Hg
Pressure
1020.32 hPa
Previous

53 mins ago

KJOT 200855Z AUTO 09009KT 10SM BKN055 OVC065 00/M05 A3014 RMK AO2 T10021047
Observed
Feb-20 @ 08:55 UTC
Wind
  • 090° at 9 KTS
Visibility
16,093 meters
Flight Rules
VFR
Cloud Levels
  • Broken at 5,500' AGL
  • Overcast at 6,500' AGL
Temperature
-0°C / 32°F
Dewpoint
-5°C / 23°F
Humidity
69%
Altimeter
30.14" Hg
Pressure
1020.62 hPa